Atwood, Kentucky
Current Conditions -  °F | °C
As of 4:52 AM on Saturday 01 Nov 2014 (Local Time) from KCVG Reporting Station
Light Snow Light Snow  
Wind Chill: 24°   Ceiling: 2100
Heat Index: 35°   Visibility: 7mi
Dew Point: 29°   Wind: 20mph
Humidity: 78%   Direction: 340°NNW
Pressure: 30.07"   Gusts: 29mph
Location:  38.8354°N, 84.5143°W
Report Text: KCVG 010852Z 34017G25KT 7SM -SN OVC021 02/M02 A3007 RMK AO2 PK WND 36027/0839 SLP188 P0000 60000 T00171017 51013 VISNO 36R $
Loading
Personal Weather Stations






























Interactive Weather Map
Tropical Storm Tracking
New forecast layout! Learn more

10-Day Weather Forecast

Advertisements
Track Severe Weather on mobile